Taree, New South Wales

12:41 AM EST on August 02, 2014 (GMT +1000)
Taree (YTRE) Elev 39 ft | 31.89 °S, 152.51 °E | Change Station

Current weather conditions updated 16 minutes ago

Clear
Clear
55 °F
Feels Like 55 °F
N
17
Wind Variable Wind from West
Gusts 29 mph

Today is forecast to be Much Cooler than yesterday. Showers possible tonight.

Today
High -- | Low -- °F
--% Chance of Precip.
Yesterday
High -- | Low -- °F
Precip. -- in
6:38 AM 5:14 PM
Waxing Crescent, 27% visible
Pressure 30.04 in
Visibility -9999.0 miles
Clouds
Dew Point 27 °F
Humidity 33%
Rainfall 0.00 in
Snow Depth Not available.
UV Not available.
Pollen Not available.
Air Quality Not available.
Flu Activity Not available.
SPECI YTRE 011425Z AUTO 28015G25KT //// // NCD 13/M03 Q1017

More Conditions Fewer Conditions

Pressure 30.04 in
Visibility -9999.0 miles
Clouds
Dew Point 27 °F
Humidity 33%
Rainfall 0.00 in
Snow Depth Not available.
UV Not available.
Pollen Not available.
Air Quality Not available.
Flu Activity Not available.
SPECI YTRE 011425Z AUTO 28015G25KT //// // NCD 13/M03 Q1017

More Conditions Fewer Conditions

10-Day Weather Forecast

Almanac

Astronomy

Aug. 02, 2014 Rise Set
Actual Time 6:38 AM EST 5:14 PM EST
Civil Twilight 6:12 AM EST 5:40 PM EST
Nautical Twilight 5:43 AM EST 6:09 PM EST
Astronomical Twilight 5:14 AM EST 6:38 PM EST
Moon 9:49 AM EST (8/2) 10:51 PM EST (8/2)
Length of Visible Light 11h 27m
Length of Day
10h 36m
Tomorrow will be 1m 24s longer.
Waxing Crescent, 27% of the Moon is Illuminated
Aug 1
Waxing Crescent
Aug 3
First Quarter
Aug 10
Full
Aug 17
Last Quarter
Aug 25
New

Yesterday's Extremes

Country Highs Country Lows

Community

WunderPhotos

Upload Photos

1,739,599 photos uploaded!

Nearby

Snow Depth

Not available.

Earthquake Activity

City Distance Mag. Time & Date
No recent earthquake activity has been reported nearby.
Minimum magnitude displayed is 2.5.

Coastal Water Temperatures

Place Temperature
No Stations Reporting

Nearby Weather Stations

Station Location Temp. Dew Point Humidity Wind Precip. Elev Updated Type
Forster, Cape Hawke, Forster 53.3 °F 31 °F 42% SW  at  0.0 mph 0.00 in / hr 66 ft 12:39 AM EST Normal

Show More Stations Show Fewer Stations